Time;durP1;ratioP1;P1;durP2;ratioP2;P2;SDS_P1;SDS_P2;PMS_P1;PMS_P2;Temp;Humidity;BMP_temperature;BMP_pressure;BME280_temperature;BME280_humidity;BME280_pressure;Samples;Min_cycle;Max_cycle;Signal;HPM_P1;HPM_P2
2024/03/25 00:00:42;;;;;;;;;15.50;12.00;;;;;8.65;58.17;100935.16;2034366;28;2800271;-70
2024/03/25 00:01:53;;;;;;;;;15.50;11.00;;;;;8.65;57.88;100939.53;1989693;28;2799170;-71
2024/03/25 00:03:04;;;;;;;;;13.50;11.00;;;;;8.69;57.83;100941.22;1996812;28;2788802;-71
2024/03/25 00:04:14;;;;;;;;;15.00;11.00;;;;;8.66;58.05;100947.38;2025948;28;2798271;-71
2024/03/25 00:05:26;;;;;;;;;17.00;15.00;;;;;8.62;58.05;100939.59;2003517;28;2792996;-70
2024/03/25 00:06:38;;;;;;;;;16.00;11.20;;;;;8.64;57.70;100943.06;2038263;28;1821658;-70
2024/03/25 00:07:49;;;;;;;;;14.00;12.50;;;;;8.60;58.16;100936.16;2013552;28;2787784;-71
2024/03/25 00:09:03;;;;;;;;;17.00;15.67;;;;;8.49;58.62;100916.28;1990253;28;3538756;-71
2024/03/25 00:10:14;;;;;;;;;15.00;15.00;;;;;8.59;58.10;100934.44;1991551;28;2779387;-71
2024/03/25 00:11:25;;;;;;;;;15.00;14.00;;;;;8.59;58.12;100939.69;1993351;28;2786723;-71
2024/03/25 00:12:38;;;;;;;;;17.00;15.17;;;;;8.55;58.19;100930.97;2042528;28;2790844;-71
2024/03/25 00:13:49;;;;;;;;;18.00;15.00;;;;;8.55;58.27;100934.47;1989399;28;2819037;-71
2024/03/25 00:15:00;;;;;;;;;21.00;14.50;;;;;8.50;58.63;100931.06;1998592;28;2804413;-71
2024/03/25 00:16:11;;;;;;;;;15.00;14.00;;;;;8.49;58.20;100925.88;2025882;28;2804457;-70
2024/03/25 00:17:22;;;;;;;;;20.00;18.00;;;;;8.52;58.25;100937.16;2013108;28;2820057;-70
2024/03/25 00:18:34;;;;;;;;;16.25;13.25;;;;;8.50;58.67;100933.69;2007920;28;1853548;-70
2024/03/25 00:19:50;;;;;;;;;16.00;16.00;;;;;8.50;58.59;100936.31;1999462;28;2816892;-70
2024/03/25 00:21:00;;;;;;;;;14.33;9.00;;;;;8.47;58.87;100925.06;1991136;28;3496086;-71
2024/03/25 00:22:11;;;;;;;;;20.25;18.50;;;;;8.47;58.60;100928.50;2042067;28;1830549;-70
2024/03/25 00:23:25;;;;;;;;;22.67;15.83;;;;;8.48;58.79;100926.75;2012919;28;1832593;-70
2024/03/25 00:24:36;;;;;;;;;21.00;18.67;;;;;8.44;58.94;100920.75;1985130;28;3568974;-70
2024/03/25 00:25:47;;;;;;;;;17.50;15.00;;;;;8.44;58.92;100921.59;2019745;28;2804422;-70
2024/03/25 00:26:59;;;;;;;;;18.40;18.20;;;;;8.41;58.94;100926.03;2003403;28;1831535;-70
2024/03/25 00:28:12;;;;;;;;;17.67;13.67;;;;;8.45;58.72;100925.06;2045320;28;1831520;-71
2024/03/25 00:29:23;;;;;;;;;17.00;15.00;;;;;8.44;58.72;100929.44;1992375;28;2810699;-71
2024/03/25 00:30:34;;;;;;;;;17.75;12.25;;;;;8.41;58.63;100912.94;2042378;28;1825321;-71
2024/03/25 00:31:45;;;;;;;;;17.00;14.00;;;;;8.48;58.59;100930.25;1985054;28;2798215;-70
2024/03/25 00:32:55;;;;;;;;;20.00;15.00;;;;;8.43;58.94;100919.88;2015813;28;2814853;-71
2024/03/25 00:34:07;;;;;;;;;15.50;13.00;;;;;8.45;58.97;100932.94;2007565;28;2800228;-70
2024/03/25 00:35:18;;;;;;;;;10.00;9.00;;;;;8.46;59.26;100929.44;1996837;28;2767957;-70
2024/03/25 00:36:28;;;;;;;;;13.50;10.00;;;;;8.47;58.82;100932.91;2029395;28;2786735;-70
2024/03/25 00:37:41;;;;;;;;;17.50;13.50;;;;;8.44;59.27;100921.59;2029573;28;1856575;-71
2024/03/25 00:38:51;;;;;;;;;11.50;10.00;;;;;8.48;59.29;100932.00;2015464;28;2785701;-71
2024/03/25 00:40:04;;;;;;;;;16.00;14.50;;;;;8.44;59.33;100918.13;2029028;28;2797162;-71
2024/03/25 00:41:15;;;;;;;;;11.50;10.50;;;;;8.45;59.16;100917.22;1993339;28;2788110;-71
2024/03/25 00:42:25;;;;;;;;;13.00;10.00;;;;;8.48;59.27;100921.53;2033614;28;2782567;-71
2024/03/25 00:43:36;;;;;;;;;11.00;10.50;;;;;8.50;59.08;100923.22;2033491;28;2779391;-71
2024/03/25 00:44:47;;;;;;;;;13.50;13.50;;;;;8.50;59.46;100915.34;2027671;28;2795123;-70
2024/03/25 00:45:58;;;;;;;;;11.50;10.00;;;;;8.43;58.78;100904.16;2027831;28;2765392;-71
2024/03/25 00:47:09;;;;;;;;;18.50;13.50;;;;;8.46;58.62;100903.22;2021181;28;2804426;-70
2024/03/25 00:48:20;;;;;;;;;13.33;10.00;;;;;8.51;59.06;100914.47;1994107;28;3508615;-71
2024/03/25 00:49:31;;;;;;;;;14.50;12.00;;;;;8.47;59.19;100904.94;2032216;28;2791957;-70
2024/03/25 00:50:42;;;;;;;;;15.50;10.75;;;;;8.44;59.29;100897.16;2045721;28;1821247;-70
2024/03/25 00:51:53;;;;;;;;;15.00;14.33;;;;;8.48;59.18;100904.06;1993153;28;3518989;-69
2024/03/25 00:53:04;;;;;;;;;14.67;13.00;;;;;8.47;58.81;100899.69;2046138;28;1848238;-70
2024/03/25 00:54:14;;;;;;;;;17.00;15.00;;;;;8.48;59.42;100903.19;1992613;28;2801312;-70
2024/03/25 00:55:26;;;;;;;;;14.75;14.00;;;;;8.43;59.29;100887.56;2037776;28;1827424;-70
2024/03/25 00:56:39;;;;;;;;;15.33;13.33;;;;;8.44;59.28;100889.31;2025245;28;1823222;-70
2024/03/25 00:57:49;;;;;;;;;16.00;12.00;;;;;8.44;58.84;100884.06;1983497;28;2794026;-70
2024/03/25 00:59:03;;;;;;;;;19.00;17.00;;;;;8.43;59.22;100887.56;2023491;28;2813784;-71
2024/03/25 01:00:15;;;;;;;;;16.50;12.50;;;;;8.48;59.16;100887.47;1990602;28;2806477;-70
2024/03/25 01:01:25;;;;;;;;;18.00;14.50;;;;;8.39;59.12;100870.22;1982051;28;2805487;-70
2024/03/25 01:02:37;;;;;;;;;11.67;11.67;;;;;8.45;59.28;100883.16;2034234;28;1838828;-71
2024/03/25 01:03:48;;;;;;;;;14.75;11.50;;;;;8.43;58.95;100871.84;2002250;28;1850289;-71
2024/03/25 01:04:59;;;;;;;;;14.00;9.33;;;;;8.44;59.42;100873.59;2006144;28;3512859;-71
2024/03/25 01:06:10;;;;;;;;;11.67;8.00;;;;;8.41;58.91;100878.88;2009589;28;2769161;-71
2024/03/25 01:07:21;;;;;;;;;14.00;12.00;;;;;8.41;59.18;100873.66;2014631;28;2786742;-70
2024/03/25 01:08:32;;;;;;;;;15.33;12.00;;;;;8.40;58.99;100883.25;1993079;28;3529392;-71
2024/03/25 01:09:43;;;;;;;;;19.50;13.00;;;;;8.37;59.23;100864.97;2024936;28;2789851;-71
2024/03/25 01:10:56;;;;;;;;;18.83;16.00;;;;;8.39;59.36;100867.59;2050594;28;2815844;-71
2024/03/25 01:12:07;;;;;;;;;14.50;11.00;;;;;8.33;59.15;100861.59;2009106;28;2785669;-70
2024/03/25 01:13:18;;;;;;;;;18.00;14.50;;;;;8.34;59.61;100862.44;2029090;28;2803392;-71
2024/03/25 01:14:29;;;;;;;;;17.00;12.75;;;;;8.33;59.44;100856.34;2012404;28;1828422;-70
2024/03/25 01:15:39;;;;;;;;;11.50;11.50;;;;;8.37;59.51;100870.22;1985384;28;2789811;-70
2024/03/25 01:16:50;;;;;;;;;13.00;12.00;;;;;8.27;59.17;100856.47;2003856;28;2786745;-70
2024/03/25 01:18:01;;;;;;;;;19.75;16.25;;;;;8.33;59.58;100861.59;2016554;28;1831496;-71
2024/03/25 01:19:12;;;;;;;;;16.00;14.50;;;;;8.28;59.11;100860.81;1991646;28;2812755;-71
2024/03/25 01:20:23;;;;;;;;;21.50;18.00;;;;;8.31;59.33;100862.50;2003139;28;2819013;-71
2024/03/25 01:21:34;;;;;;;;;17.00;15.75;;;;;8.28;59.61;100852.97;2002526;28;1838839;-70
2024/03/25 01:22:45;;;;;;;;;16.00;16.00;;;;;8.26;59.29;100856.50;1990349;28;2802307;-70
2024/03/25 01:23:56;;;;;;;;;15.00;11.33;;;;;8.22;59.47;100856.56;2046434;28;1843053;-70
2024/03/25 01:25:07;;;;;;;;;15.00;14.00;;;;;8.19;59.34;100854.03;1982973;28;2796096;-71
2024/03/25 01:26:17;;;;;;;;;18.00;15.00;;;;;8.20;59.20;100855.75;2005933;28;2791934;-71
2024/03/25 01:27:28;;;;;;;;;19.00;16.50;;;;;8.19;59.38;100855.78;2001226;28;2817939;-70
2024/03/25 01:28:39;;;;;;;;;18.00;16.00;;;;;8.17;59.49;100845.31;2009024;28;2812775;-70
2024/03/25 01:29:50;;;;;;;;;21.00;16.00;;;;;8.17;59.08;100850.56;2010364;28;2822460;-70
2024/03/25 01:31:01;;;;;;;;;16.50;16.50;;;;;8.18;59.67;100852.28;1997155;28;2809674;-70
2024/03/25 01:32:13;;;;;;;;;20.75;17.25;;;;;8.12;59.69;100834.13;2036907;28;1829476;-70
2024/03/25 01:33:23;;;;;;;;;15.50;15.50;;;;;8.15;60.18;100843.66;1983120;28;2803416;-70
2024/03/25 01:34:35;;;;;;;;;18.33;16.67;;;;;8.17;59.84;100834.00;2015237;28;3564896;-70
2024/03/25 01:35:46;;;;;;;;;21.00;17.00;;;;;8.11;59.60;100829.75;2031956;28;2834660;-71
2024/03/25 01:36:57;;;;;;;;;17.00;17.00;;;;;8.15;59.52;100841.88;2014050;28;2819000;-71
2024/03/25 01:38:09;;;;;;;;;19.33;19.00;;;;;8.10;59.48;100822.78;1997608;28;3564852;-71
2024/03/25 01:39:21;;;;;;;;;19.00;18.00;;;;;8.08;60.06;100819.34;2024261;28;3562763;-71
2024/03/25 01:40:32;;;;;;;;;20.00;16.50;;;;;8.04;59.59;100815.94;2025073;28;2832573;-70
2024/03/25 01:41:43;;;;;;;;;20.50;18.00;;;;;8.07;59.62;100820.25;2010169;28;2809626;-71
2024/03/25 01:43:02;;;;;;;;;20.50;18.00;;;;;8.10;59.84;100834.13;2004116;28;2830970;-70
2024/03/25 01:44:12;;;;;;;;;14.00;14.00;;;;;8.07;59.82;100834.22;1986862;28;2814866;-70
2024/03/25 01:45:25;;;;;;;;;15.00;10.50;;;;;8.02;59.75;100822.97;2016110;28;1844134;-70
2024/03/25 01:46:37;;;;;;;;;25.75;17.00;;;;;8.02;59.84;100820.34;2018099;28;1858636;-70
2024/03/25 01:47:48;;;;;;;;;18.67;16.00;;;;;7.99;59.76;100816.03;2006374;28;2829499;-71
2024/03/25 01:49:01;;;;;;;;;20.20;16.80;;;;;7.96;60.06;100802.13;2017879;28;2825235;-70
2024/03/25 01:50:14;;;;;;;;;16.80;16.00;;;;;8.02;59.67;100815.13;2009319;28;1834658;-70
2024/03/25 01:51:26;;;;;;;;;22.00;20.00;;;;;7.96;59.99;100803.00;1999441;28;3577318;-70
2024/03/25 01:52:36;;;;;;;;;18.00;16.50;;;;;8.00;60.10;100809.03;2008958;28;2830864;-71
2024/03/25 01:53:49;;;;;;;;;21.33;17.00;;;;;7.94;60.19;100796.06;1994218;28;3573106;-70
2024/03/25 01:55:03;;;;;;;;;21.33;20.33;;;;;7.93;59.73;100807.44;1996189;28;3582535;-70
2024/03/25 01:56:15;;;;;;;;;16.00;15.00;;;;;7.95;60.13;100798.66;1992639;28;2814873;-70
2024/03/25 01:57:28;;;;;;;;;22.83;17.00;;;;;7.94;60.34;100798.69;2014931;28;1833620;-70
2024/03/25 01:58:41;;;;;;;;;21.00;19.00;;;;;7.94;60.42;100804.81;2001745;28;2835659;-70
2024/03/25 01:59:52;;;;;;;;;18.00;18.00;;;;;7.94;60.22;100793.47;1986404;28;2824236;-70
2024/03/25 02:01:05;;;;;;;;;19.00;17.33;;;;;7.95;60.04;100801.28;1996750;28;3558558;-70
2024/03/25 02:02:16;;;;;;;;;19.67;17.33;;;;;7.92;60.04;100787.41;2010223;28;2827397;-70
2024/03/25 02:03:29;;;;;;;;;24.67;20.00;;;;;7.88;60.00;100779.59;2011449;28;3582519;-70
2024/03/25 02:04:41;;;;;;;;;18.00;17.00;;;;;7.93;59.75;100786.50;2015092;28;2819009;-70
2024/03/25 02:06:02;;;;;;;;;18.50;16.17;;;;;7.90;60.40;100781.34;2021673;28;1837816;-70
2024/03/25 02:07:14;;;;;;;;;24.40;20.40;;;;;7.87;60.45;100782.28;2011677;28;2836708;-70
2024/03/25 02:08:27;;;;;;;;;26.00;18.67;;;;;7.91;60.16;100783.06;2006406;28;3576293;-70
2024/03/25 02:09:39;;;;;;;;;19.00;18.00;;;;;7.85;60.46;100774.44;2015237;28;3564808;-71
2024/03/25 02:10:54;;;;;;;;;23.40;20.80;;;;;7.88;60.27;100777.00;2034540;28;2843988;-70
2024/03/25 02:12:06;;;;;;;;;21.33;19.00;;;;;7.87;60.61;100775.28;1991125;28;3565885;-70
2024/03/25 02:13:18;;;;;;;;;20.67;18.33;;;;;7.87;60.79;100764.81;2013056;28;3571057;-70
2024/03/25 02:14:30;;;;;;;;;26.00;20.33;;;;;7.80;60.30;100752.75;2017779;28;3576355;-70
2024/03/25 02:15:43;;;;;;;;;25.33;20.67;;;;;7.84;60.33;100764.88;2024392;28;3579430;-70
2024/03/25 02:16:54;;;;;;;;;23.00;20.33;;;;;7.82;60.65;100764.06;2013446;28;3583637;-70
2024/03/25 02:18:05;;;;;;;;;18.50;15.00;;;;;7.86;60.28;100763.09;2023622;28;2813781;-70
2024/03/25 02:19:18;;;;;;;;;21.80;18.00;;;;;7.80;60.28;100755.38;2002369;28;2835682;-70
2024/03/25 02:20:29;;;;;;;;;21.00;19.00;;;;;7.79;60.52;100756.25;1989377;28;2829778;-70
2024/03/25 02:21:41;;;;;;;;;19.20;17.80;;;;;7.80;60.28;100758.00;2011071;28;1835727;-70
2024/03/25 02:22:52;;;;;;;;;27.00;19.00;;;;;7.79;60.43;100751.03;1990501;28;3567948;-70
2024/03/25 02:24:09;;;;;;;;;21.17;18.83;;;;;7.78;60.81;100754.53;2050220;28;2836681;-70
2024/03/25 02:25:22;;;;;;;;;19.67;19.67;;;;;7.82;60.98;100756.19;1991547;28;3567921;-70
2024/03/25 02:26:33;;;;;;;;;21.67;19.33;;;;;7.78;60.98;100744.06;2014598;28;3558601;-70
2024/03/25 02:27:44;;;;;;;;;21.00;19.00;;;;;7.74;60.49;100734.56;2019855;28;2828418;-70
2024/03/25 02:28:57;;;;;;;;;21.83;18.83;;;;;7.76;60.67;100745.84;2018425;28;2832558;-70
2024/03/25 02:30:12;;;;;;;;;21.00;19.33;;;;;7.76;60.54;100745.84;2010766;28;3563737;-70
2024/03/25 02:31:23;;;;;;;;;22.67;20.00;;;;;7.75;60.26;100750.22;2015052;28;3562797;-70
2024/03/25 02:32:36;;;;;;;;;27.33;22.00;;;;;7.73;60.90;100743.31;2033072;28;3585684;-71
2024/03/25 02:33:47;;;;;;;;;24.67;20.00;;;;;7.73;60.38;100740.69;2027149;28;3575236;-70
2024/03/25 02:35:01;;;;;;;;;19.33;18.33;;;;;7.75;60.83;100744.97;2029839;28;2839906;-70
2024/03/25 02:36:14;;;;;;;;;19.83;19.83;;;;;7.70;60.58;100740.75;2041735;28;1839879;-71
2024/03/25 02:37:26;;;;;;;;;26.00;20.00;;;;;7.71;60.67;100740.72;1979801;28;3575252;-70
2024/03/25 02:38:40;;;;;;;;;27.00;20.17;;;;;7.72;60.38;100741.59;2040751;28;1835705;-70
2024/03/25 02:39:51;;;;;;;;;26.50;26.00;;;;;7.71;60.79;100743.31;1995271;28;2844100;-70
2024/03/25 02:41:03;;;;;;;;;23.67;20.00;;;;;7.71;60.46;100745.06;2007170;28;3574206;-70
2024/03/25 02:42:15;;;;;;;;;22.67;21.00;;;;;7.67;60.63;100733.81;2008159;28;3571101;-70
2024/03/25 02:43:26;;;;;;;;;22.50;19.00;;;;;7.71;61.02;100745.06;2006724;28;2822148;-71
2024/03/25 02:44:38;;;;;;;;;26.33;21.33;;;;;7.67;60.84;100735.56;2009285;28;2848135;-70
2024/03/25 02:45:49;;;;;;;;;23.33;20.33;;;;;7.71;60.57;100739.84;2014447;28;3567314;-70
2024/03/25 02:47:01;;;;;;;;;28.33;21.67;;;;;7.71;60.51;100735.47;2025843;28;3584633;-70
2024/03/25 02:48:13;;;;;;;;;21.00;20.33;;;;;7.65;60.69;100728.59;2000148;28;3580500;-71
2024/03/25 02:49:25;;;;;;;;;28.00;22.67;;;;;7.69;60.89;100728.56;2017598;28;3577346;-70
2024/03/25 02:50:36;;;;;;;;;24.33;23.00;;;;;7.67;61.13;100730.34;2017058;28;3586022;-71
2024/03/25 02:51:48;;;;;;;;;28.00;24.33;;;;;7.67;60.98;100730.34;2031203;28;3590863;-70
2024/03/25 02:53:00;;;;;;;;;26.33;23.00;;;;;7.60;61.35;100716.53;2024844;28;3588837;-71
2024/03/25 02:54:13;;;;;;;;;23.33;23.00;;;;;7.68;61.19;100727.69;2033097;28;3588801;-70
2024/03/25 02:55:24;;;;;;;;;35.00;26.50;;;;;7.62;60.81;100718.22;2017436;28;2853417;-70
2024/03/25 02:56:36;;;;;;;;;28.60;26.80;;;;;7.63;61.29;100719.94;2010718;28;3591855;-70
2024/03/25 02:57:48;;;;;;;;;28.00;24.33;;;;;7.62;61.24;100722.59;2015803;28;3582533;-70
2024/03/25 02:58:59;;;;;;;;;30.00;25.00;;;;;7.59;61.11;100707.81;2033187;28;3593994;-70
2024/03/25 03:00:12;;;;;;;;;27.67;24.00;;;;;7.64;61.26;100723.41;2032923;28;3578872;-70
2024/03/25 03:01:24;;;;;;;;;28.33;24.67;;;;;7.63;60.87;100725.16;2016415;28;3587739;-70
2024/03/25 03:02:35;;;;;;;;;20.50;18.00;;;;;7.60;61.18;100713.94;2019226;28;2811725;-70
2024/03/25 03:03:47;;;;;;;;;22.00;20.33;;;;;7.60;61.53;100712.19;2002844;28;3575196;-70
2024/03/25 03:04:59;;;;;;;;;23.67;22.67;;;;;7.62;61.63;100718.22;2033096;28;3573156;-70
2024/03/25 03:06:11;;;;;;;;;23.67;19.00;;;;;7.61;61.04;100715.63;2008674;28;2824591;-71
2024/03/25 03:07:21;;;;;;;;;24.00;22.00;;;;;7.62;61.05;100714.75;2008836;28;2835742;-70
2024/03/25 03:08:33;;;;;;;;;25.67;20.33;;;;;7.62;61.12;100715.63;2008795;28;3581466;-70
2024/03/25 03:09:46;;;;;;;;;21.33;20.50;;;;;7.59;61.44;100713.06;2047476;28;2837726;-70
2024/03/25 03:10:58;;;;;;;;;28.33;23.00;;;;;7.64;61.38;100718.19;2010627;28;3599186;-70
2024/03/25 03:12:10;;;;;;;;;27.67;23.33;;;;;7.58;61.34;100707.88;2003990;28;3584668;-70
2024/03/25 03:13:22;;;;;;;;;29.40;25.20;;;;;7.61;61.36;100718.25;2030071;28;3596041;-70
2024/03/25 03:14:34;;;;;;;;;32.00;28.00;;;;;7.59;61.61;100713.06;2009958;28;3602287;-70
2024/03/25 03:15:46;;;;;;;;;33.80;26.40;;;;;7.64;61.61;100716.44;2015022;28;3590827;-70
2024/03/25 03:16:58;;;;;;;;;29.33;28.00;;;;;7.60;62.05;100709.56;2009246;28;3591878;-70
2024/03/25 03:18:10;;;;;;;;;27.33;26.33;;;;;7.62;61.39;100712.13;2015247;28;3578361;-70
2024/03/25 03:19:21;;;;;;;;;33.20;24.20;;;;;7.59;61.41;100707.81;2009498;28;3593970;-70
2024/03/25 03:20:33;;;;;;;;;28.00;25.00;;;;;7.63;61.38;100716.47;2025059;28;3571136;-70
2024/03/25 03:21:45;;;;;;;;;29.33;26.00;;;;;7.63;61.91;100719.94;2023357;28;3576306;-71
2024/03/25 03:22:57;;;;;;;;;26.67;25.00;;;;;7.62;61.45;100712.13;2032797;28;3572103;-71
2024/03/25 03:24:09;;;;;;;;;29.00;24.67;;;;;7.61;61.79;100710.41;2030087;28;3573137;-71
2024/03/25 03:25:21;;;;;;;;;27.00;24.00;;;;;7.62;61.80;100717.38;2032961;28;3589850;-70
2024/03/25 03:26:33;;;;;;;;;30.00;26.00;;;;;7.56;61.77;100697.41;2032540;28;3582558;-70
2024/03/25 03:27:45;;;;;;;;;26.00;20.67;;;;;7.60;61.79;100709.56;2032524;28;3567957;-70
2024/03/25 03:28:57;;;;;;;;;21.67;21.67;;;;;7.60;61.60;100704.31;2024161;28;2835779;-70
2024/03/25 03:30:09;;;;;;;;;25.00;25.00;;;;;7.59;61.46;100694.75;2008239;28;2834637;-70
2024/03/25 03:31:23;;;;;;;;;29.33;27.33;;;;;7.59;61.55;100699.09;2013644;28;3598143;-70
2024/03/25 03:32:35;;;;;;;;;27.33;21.67;;;;;7.54;61.75;100689.63;2006491;28;3576282;-70
2024/03/25 03:33:50;;;;;;;;;28.67;25.00;;;;;7.58;61.70;100700.84;2023512;28;3578373;-70
2024/03/25 03:35:00;;;;;;;;;24.50;23.00;;;;;7.54;61.64;100684.38;2008843;28;2834628;-70
2024/03/25 03:36:12;;;;;;;;;25.00;21.67;;;;;7.58;62.03;100690.41;2030478;28;3589826;-70
2024/03/25 03:37:24;;;;;;;;;24.33;22.67;;;;;7.58;61.80;100694.78;2027930;28;3561710;-70
2024/03/25 03:38:36;;;;;;;;;23.00;20.80;;;;;7.60;62.11;100693.00;2029710;28;3561675;-70
2024/03/25 03:39:48;;;;;;;;;30.67;23.33;;;;;7.58;61.56;100679.09;2016870;28;3602319;-71
2024/03/25 03:41:02;;;;;;;;;31.00;25.00;;;;;7.59;61.92;100680.78;1993201;28;3597104;-70
2024/03/25 03:42:13;;;;;;;;;26.00;26.00;;;;;7.56;62.10;100671.25;2006427;28;3574203;-71
2024/03/25 03:43:25;;;;;;;;;24.00;21.00;;;;;7.55;62.29;100674.78;2015150;28;3573176;-70
2024/03/25 03:44:37;;;;;;;;;28.33;21.33;;;;;7.60;61.76;100679.91;2006528;28;3591340;-70
2024/03/25 03:45:49;;;;;;;;;28.00;23.00;;;;;7.56;61.94;100668.66;1992917;28;3591890;-71
2024/03/25 03:47:01;;;;;;;;;25.00;22.00;;;;;7.60;62.22;100679.91;2021549;28;3581462;-71
2024/03/25 03:48:13;;;;;;;;;23.67;19.67;;;;;7.57;61.77;100672.13;2024607;28;3572603;-70
2024/03/25 03:49:25;;;;;;;;;20.33;19.00;;;;;7.57;61.64;100674.75;2023649;28;3567269;-71
2024/03/25 03:50:37;;;;;;;;;29.67;20.00;;;;;7.62;61.51;100683.34;2024583;28;3610656;-70
2024/03/25 03:51:48;;;;;;;;;25.33;21.67;;;;;7.56;61.85;100665.16;2024607;28;3590417;-70
2024/03/25 03:53:00;;;;;;;;;27.67;19.67;;;;;7.56;61.55;100666.03;2024913;28;3596084;-71
2024/03/25 03:54:13;;;;;;;;;31.67;25.33;;;;;7.56;61.64;100662.53;2024511;28;3600249;-70
2024/03/25 03:55:24;;;;;;;;;22.67;22.67;;;;;7.58;61.69;100669.47;1983738;28;3591922;-70
2024/03/25 03:56:36;;;;;;;;;22.40;20.60;;;;;7.59;61.97;100671.19;2005813;28;3568998;-71
2024/03/25 03:57:48;;;;;;;;;23.67;18.00;;;;;7.60;61.85;100666.84;2013018;28;3575205;-70
2024/03/25 03:59:00;;;;;;;;;21.67;19.33;;;;;7.58;61.78;100666.00;2016340;28;3577307;-70
2024/03/25 04:00:13;;;;;;;;;27.67;22.33;;;;;7.53;61.65;100666.94;2024792;28;3585645;-70
2024/03/25 04:01:24;;;;;;;;;24.50;18.50;;;;;7.57;61.45;100672.13;2009759;28;2846114;-70
2024/03/25 04:02:36;;;;;;;;;25.00;22.00;;;;;7.52;61.44;100660.03;2024731;28;3587767;-70
2024/03/25 04:03:49;;;;;;;;;27.17;23.67;;;;;7.54;61.60;100666.06;2040205;28;2843399;-70
2024/03/25 04:05:01;;;;;;;;;23.00;22.00;;;;;7.50;61.47;100663.56;1990330;28;2829872;-70
2024/03/25 04:06:13;;;;;;;;;22.00;19.50;;;;;7.53;61.70;100666.13;2009408;28;2831585;-70
2024/03/25 04:07:26;;;;;;;;;25.67;21.33;;;;;7.52;61.69;100662.63;2007667;28;3561718;-71
2024/03/25 04:08:38;;;;;;;;;25.00;24.00;;;;;7.48;61.97;100650.50;2009038;28;2845068;-70
2024/03/25 04:09:49;;;;;;;;;29.00;22.00;;;;;7.48;61.72;100650.50;2008027;28;3583549;-70
2024/03/25 04:11:02;;;;;;;;;24.33;20.67;;;;;7.49;61.45;100653.97;2024249;28;3571064;-70
2024/03/25 04:12:14;;;;;;;;;28.67;23.33;;;;;7.48;61.61;100647.03;2007695;28;3585660;-71
2024/03/25 04:13:25;;;;;;;;;22.80;18.40;;;;;7.46;61.43;100648.84;2034319;28;1833618;-70
2024/03/25 04:14:38;;;;;;;;;22.33;22.33;;;;;7.40;61.43;100636.75;2007587;28;3574533;-70
2024/03/25 04:15:50;;;;;;;;;26.33;21.33;;;;;7.41;61.58;100635.84;2007411;28;3575221;-70
2024/03/25 04:17:02;;;;;;;;;24.67;23.00;;;;;7.44;61.54;100643.63;2007922;28;3588789;-70
2024/03/25 04:18:14;;;;;;;;;22.67;20.67;;;;;7.41;61.39;100636.69;2007806;28;3565861;-71
2024/03/25 04:19:27;;;;;;;;;26.33;20.00;;;;;7.40;61.81;100637.59;2023665;28;3578364;-70
2024/03/25 04:20:42;;;;;;;;;23.83;20.67;;;;;7.42;61.49;100641.03;2037116;28;1839912;-71
2024/03/25 04:21:56;;;;;;;;;22.50;18.50;;;;;7.35;61.58;100631.63;1984941;28;2833599;-70
2024/03/25 04:23:07;;;;;;;;;24.33;20.67;;;;;7.35;61.48;100622.91;1985066;28;2833702;-70
2024/03/25 04:24:18;;;;;;;;;24.00;18.50;;;;;7.35;61.84;100620.28;2007905;28;2835678;-70
2024/03/25 04:25:29;;;;;;;;;24.50;20.25;;;;;7.33;61.55;100620.31;2009681;28;1839854;-70
2024/03/25 04:26:40;;;;;;;;;22.33;19.00;;;;;7.39;61.97;100621.94;1984617;28;3557481;-71
2024/03/25 04:27:51;;;;;;;;;21.75;18.25;;;;;7.34;62.05;100611.56;2033926;28;1835816;-70
2024/03/25 04:29:03;;;;;;;;;23.67;18.00;;;;;7.31;62.30;100603.78;1983729;28;3573161;-70
2024/03/25 04:30:14;;;;;;;;;17.67;17.67;;;;;7.30;61.99;100596.84;2024290;28;2827374;-70
2024/03/25 04:31:28;;;;;;;;;23.83;19.00;;;;;7.30;61.95;100600.34;2036139;28;1846138;-70
2024/03/25 04:32:40;;;;;;;;;19.67;18.67;;;;;7.33;61.99;100612.47;1983659;28;3559662;-71
2024/03/25 04:33:51;;;;;;;;;22.00;19.00;;;;;7.33;62.06;100615.09;2003095;28;2822256;-70
2024/03/25 04:35:03;;;;;;;;;21.00;21.00;;;;;7.34;61.89;100613.31;2002824;28;2831512;-71
2024/03/25 04:36:13;;;;;;;;;19.50;19.50;;;;;7.29;61.87;100605.56;1980237;28;2827357;-70
2024/03/25 04:37:25;;;;;;;;;21.75;16.50;;;;;7.31;62.25;100606.41;2002385;28;1843999;-70
2024/03/25 04:38:39;;;;;;;;;19.00;15.86;;;;;7.29;62.06;100595.13;2021288;28;1837782;-70
2024/03/25 04:39:50;;;;;;;;;31.00;19.00;;;;;7.34;61.95;100605.47;2010976;28;3605495;-71
2024/03/25 04:41:02;;;;;;;;;22.67;21.00;;;;;7.33;61.92;100604.63;2031431;28;3561710;-70
2024/03/25 04:42:14;;;;;;;;;28.33;20.33;;;;;7.35;62.08;100604.59;2028957;28;3587759;-71
2024/03/25 04:43:25;;;;;;;;;18.50;17.00;;;;;7.34;62.52;100600.25;2023573;28;2816945;-71
2024/03/25 04:44:37;;;;;;;;;21.00;17.67;;;;;7.31;61.71;100595.94;2002683;28;3556463;-70
2024/03/25 04:45:49;;;;;;;;;23.00;21.00;;;;;7.34;61.74;100598.50;2032391;28;2841924;-70
2024/03/25 04:47:02;;;;;;;;;19.33;17.33;;;;;7.27;62.14;100589.94;2022345;28;1823698;-71
2024/03/25 04:48:15;;;;;;;;;22.83;18.50;;;;;7.26;62.10;100588.19;2021971;28;1833670;-71
2024/03/25 04:49:28;;;;;;;;;20.60;18.00;;;;;7.31;62.30;100595.94;2006545;28;2827321;-71
2024/03/25 04:50:39;;;;;;;;;13.00;9.00;;;;;7.25;61.95;100583.88;2006911;28;2773200;-70
2024/03/25 04:51:51;;;;;;;;;16.00;15.50;;;;;7.30;62.01;100591.63;2025145;28;2800216;-70
2024/03/25 04:53:03;;;;;;;;;20.33;17.67;;;;;7.31;62.12;100590.72;1984664;28;2820035;-70
2024/03/25 04:54:17;;;;;;;;;21.71;17.00;;;;;7.29;62.37;100584.66;2041769;28;1837827;-70
2024/03/25 04:55:28;;;;;;;;;22.67;18.00;;;;;7.25;62.85;100583.88;2011087;28;3568996;-70
2024/03/25 04:56:40;;;;;;;;;19.33;16.67;;;;;7.31;62.40;100593.31;2013063;28;2825254;-70
2024/03/25 04:57:52;;;;;;;;;20.67;18.33;;;;;7.35;62.28;100597.63;2000833;28;2821275;-70
2024/03/25 04:59:02;;;;;;;;;17.00;15.50;;;;;7.28;62.23;100583.81;2005176;28;2810687;-70
2024/03/25 05:00:14;;;;;;;;;22.33;17.00;;;;;7.32;62.53;100589.84;1995193;28;3567913;-70
2024/03/25 05:01:26;;;;;;;;;18.67;16.00;;;;;7.31;62.37;100586.34;2024031;28;3554408;-71
2024/03/25 05:02:38;;;;;;;;;21.00;19.33;;;;;7.34;62.47;100600.25;2026688;28;2827365;-70
2024/03/25 05:03:52;;;;;;;;;26.33;20.00;;;;;7.28;62.59;100577.72;2043931;28;1845107;-71
2024/03/25 05:05:02;;;;;;;;;20.00;18.50;;;;;7.34;62.18;100592.41;1992842;28;2833675;-70
2024/03/25 05:06:13;;;;;;;;;20.50;16.00;;;;;7.32;62.33;100587.22;2002580;28;2808573;-71
2024/03/25 05:07:24;;;;;;;;;17.75;17.00;;;;;7.34;62.81;100587.16;2019650;28;1842010;-70
2024/03/25 05:08:38;;;;;;;;;20.33;17.83;;;;;7.36;62.44;100593.25;2022241;28;1842018;-70
2024/03/25 05:09:48;;;;;;;;;17.50;16.50;;;;;7.28;62.32;100572.50;1986272;28;2795534;-70
2024/03/25 05:11:00;;;;;;;;;20.80;17.80;;;;;7.33;62.35;100583.72;2016103;28;1835659;-71
2024/03/25 05:12:11;;;;;;;;;16.50;13.50;;;;;7.33;62.10;100578.50;2014558;28;2800220;-70
2024/03/25 05:13:22;;;;;;;;;18.50;17.00;;;;;7.33;62.46;100581.09;2009000;28;2822133;-71
2024/03/25 05:14:33;;;;;;;;;21.00;17.75;;;;;7.33;62.27;100583.72;2026555;28;1834172;-70
2024/03/25 05:15:52;;;;;;;;;20.00;17.00;;;;;7.30;62.73;100571.56;1976777;28;2822161;-70
2024/03/25 05:17:05;;;;;;;;;20.00;16.00;;;;;7.34;62.27;100577.59;1976738;28;2822136;-70
2024/03/25 05:18:18;;;;;;;;;22.40;18.20;;;;;7.33;62.29;100583.72;2003390;28;2833558;-70
2024/03/25 05:19:29;;;;;;;;;17.00;17.00;;;;;7.34;61.98;100582.81;1987948;28;2821080;-70
2024/03/25 05:20:40;;;;;;;;;19.00;15.00;;;;;7.33;62.26;100583.72;2007397;28;2806466;-70
2024/03/25 05:21:52;;;;;;;;;14.00;12.50;;;;;7.37;62.60;100585.38;1998902;28;2788816;-70
2024/03/25 05:23:04;;;;;;;;;21.80;16.60;;;;;7.36;62.78;100574.94;2034899;28;2834621;-70